Ana Sayfa
METAR-TAF:

METAR-TAF

Havaalanları :

Tunus, Tunus

Tunus-Kartaca Uluslararası Havalimanı

Enlem: 36-50N, Boylam: 010-14E, yükseklik: 3 m

Güncel hava durumu gözlemi

Rapor saat 19:00 UTC de 26 dakika önce yapıldı.
Sakin rüzgar
Sıcaklık 10°C
Nem 82%
Basınç 1023 hPa
Görüş mesafesi 10 km veya daha fazla
2600 ft yükseklikte az bulutlu

METAR: DTTA 181900Z 00000KT 9999 FEW026 10/07 Q1023 NOSIG

Saat: 20:26 (19:26 UTC)

Tahmin

Rapor saat 17:20 UTC de 2 saat ve 6 dakika önce yapıldı.
Ayın 18'si saat 18 UTC'den ayın 19'si saat 18 UTC'ye kadar geçerli Tahmin
Rüzgar değişken yönden 3 kt
Görüş mesafesi 10 km veya daha fazla
2600 ft yükseklikte az bulutlu
Dönüşüyor
ayın 19'si saat 03 UTC'den ayın 19'si saat 05 UTC'ye kadar
Rüzgar güneybatıdan 14 kt

TAF: DTTA 181720Z 1818/1918 VRB03KT 9999 FEW026 BECMG 1903/1905 23014KT

4.000'den fazla havaalanı için hava durumu gözlemleri ve tahminleri (METAR ve TAF raporları).

Kullanılabilir istasyonlar harita üzerinde sarı ve kırmızı noktalarla gösterilir.

İstasyonun adını görmek için fareyi noktanın üzerinde gezdirin.

Sonrasında hava gözlem ve tahminlerini görmek için tıklayın.

Haritayı değiştirmek için: yaklaştırmak için siyah artı işaretli yeşil düğmeye ve uzaklaştırmak için de eksi işaretli düğmeye hızla tıklayın; bitişik haritalar için yeşil okları kullanın.


METAR-TAF: